createdAt,value
2022-10-17T00:03:39.570Z,98391.25
2022-10-17T00:08:42.805Z,98385.84
2022-10-17T00:13:45.710Z,98395.41
2022-10-17T00:18:47.285Z,98392.78
2022-10-17T00:23:49.186Z,98393.88
2022-10-17T00:28:52.053Z,98401.50
2022-10-17T00:33:53.948Z,98404.88
2022-10-17T00:38:58.530Z,98404.19
2022-10-17T00:44:03.566Z,98404.66
2022-10-17T00:49:08.947Z,98401.41
2022-10-17T00:54:13.432Z,98408.53
2022-10-17T00:59:17.447Z,98413.19
2022-10-17T01:04:19.550Z,98410.78
2022-10-17T01:09:21.437Z,98410.13
2022-10-17T01:14:32.860Z,98412.84
2022-10-17T01:19:49.951Z,98416.00
2022-10-17T01:25:20.888Z,98411.44
2022-10-17T01:30:26.491Z,98414.38
2022-10-17T01:35:38.099Z,98413.16
2022-10-17T01:40:48.425Z,98416.66
2022-10-17T01:45:52.889Z,98410.31
2022-10-17T01:51:02.116Z,98400.75
2022-10-17T01:56:07.912Z,98410.28
2022-10-17T02:01:12.390Z,98404.28
2022-10-17T02:06:14.070Z,98403.06
2022-10-17T02:11:22.884Z,98393.97
2022-10-17T02:16:33.904Z,98392.94
2022-10-17T02:21:49.785Z,98396.13
2022-10-17T02:26:51.398Z,98395.00
2022-10-17T02:32:17.869Z,98388.63
2022-10-17T02:37:25.686Z,98389.88
2022-10-17T02:42:29.466Z,98389.66
2022-10-17T02:47:57.350Z,98388.31
2022-10-17T02:53:05.805Z,98386.34
2022-10-17T02:58:13.476Z,98397.31
2022-10-17T03:03:23.722Z,98397.25
2022-10-17T03:08:26.099Z,98397.69
2022-10-17T03:13:28.531Z,98399.22
2022-10-17T03:18:30.328Z,98401.59
2022-10-17T03:23:35.242Z,98401.06
2022-10-17T03:28:38.845Z,98398.31
2022-10-17T03:33:40.695Z,98407.75
2022-10-17T03:38:44.120Z,98412.25
2022-10-17T03:43:45.843Z,98417.28
2022-10-17T03:48:47.469Z,98417.44
2022-10-17T03:53:49.138Z,98425.81
2022-10-17T03:58:51.247Z,98429.66
2022-10-17T04:03:56.106Z,98425.59
2022-10-17T04:08:57.893Z,98424.00
2022-10-17T04:14:03.253Z,98421.03
2022-10-17T04:19:05.558Z,98431.69
2022-10-17T04:24:15.412Z,98433.75
2022-10-17T04:29:21.775Z,98429.91
2022-10-17T04:34:25.827Z,98437.69
2022-10-17T04:39:27.573Z,98433.44
2022-10-17T04:44:31.082Z,98432.13
2022-10-17T04:49:33.626Z,98441.94
2022-10-17T04:54:42.909Z,98442.09
2022-10-17T04:59:45.706Z,98446.22
2022-10-17T05:04:56.273Z,98443.38
2022-10-17T05:09:58.849Z,98447.06
2022-10-17T05:15:00.737Z,98453.22
2022-10-17T05:20:04.174Z,98460.97
2022-10-17T05:25:08.448Z,98472.16
2022-10-17T05:30:10.422Z,98470.53
2022-10-17T05:35:13.456Z,98474.75
2022-10-17T05:40:16.501Z,98478.69
2022-10-17T05:45:18.634Z,98492.69
2022-10-17T05:50:22.069Z,98489.13
2022-10-17T05:55:35.947Z,98489.16
2022-10-17T06:00:37.635Z,98490.91
2022-10-17T06:05:39.885Z,98491.44
2022-10-17T06:10:41.557Z,98493.88
2022-10-17T06:15:43.411Z,98503.31
2022-10-17T06:20:46.084Z,98506.78
2022-10-17T06:25:50.378Z,98511.91
2022-10-17T06:30:52.059Z,98520.41
2022-10-17T06:35:55.821Z,98522.22
2022-10-17T06:41:11.165Z,98519.34
2022-10-17T06:46:17.497Z,98530.75
2022-10-17T06:51:29.172Z,98531.16
2022-10-17T06:56:33.306Z,98539.16
2022-10-17T07:02:02.196Z,98544.72
2022-10-17T07:07:05.162Z,98549.41
2022-10-17T07:12:09.136Z,98549.34
2022-10-17T07:17:11.473Z,98556.84
2022-10-17T07:22:13.658Z,98563.59
2022-10-17T07:27:19.011Z,98561.16
2022-10-17T07:32:21.757Z,98562.97
2022-10-17T07:37:23.489Z,98558.66
2022-10-17T07:42:29.446Z,98564.03
2022-10-17T07:47:32.068Z,98564.81
2022-10-17T07:52:35.135Z,98565.72
2022-10-17T07:57:36.773Z,98559.59
2022-10-17T08:02:38.444Z,98562.44
2022-10-17T08:07:41.424Z,98564.59
2022-10-17T08:12:43.417Z,98572.88
2022-10-17T08:17:44.952Z,98576.19
2022-10-17T08:22:52.478Z,98573.41
2022-10-17T08:27:54.132Z,98578.91
2022-10-17T08:32:56.356Z,98585.63
2022-10-17T08:38:01.553Z,98574.72
2022-10-17T08:43:35.201Z,98580.63
2022-10-17T08:48:45.611Z,98580.22
2022-10-17T08:53:55.816Z,98583.06
2022-10-17T08:58:58.239Z,98590.91
2022-10-17T09:04:15.923Z,98590.53
2022-10-17T09:09:41.160Z,98586.59
2022-10-17T09:15:02.807Z,98568.41
2022-10-17T09:20:19.428Z,98587.00
2022-10-17T09:25:21.933Z,98591.91
2022-10-17T09:30:44.550Z,98580.28
2022-10-17T09:35:48.633Z,98586.25
2022-10-17T09:41:00.638Z,98591.97
2022-10-17T09:46:37.289Z,98588.84
2022-10-17T09:51:39.373Z,98595.06
2022-10-17T09:57:02.691Z,98596.34
2022-10-17T10:02:09.470Z,98595.97
2022-10-17T10:07:12.378Z,98583.31
2022-10-17T10:12:23.797Z,98588.34
2022-10-17T10:17:37.304Z,98597.78
2022-10-17T10:22:38.980Z,98597.81
2022-10-17T10:27:42.750Z,98591.81
2022-10-17T10:32:46.904Z,98591.50
2022-10-17T10:37:52.931Z,98591.06
2022-10-17T10:43:02.537Z,98582.84
2022-10-17T10:48:16.517Z,98591.41
2022-10-17T10:53:24.883Z,98580.91
2022-10-17T10:58:47.924Z,98578.84
2022-10-17T11:03:58.444Z,98580.84
2022-10-17T11:09:13.025Z,98569.28
2022-10-17T11:14:24.781Z,98559.50
2022-10-17T11:19:44.559Z,98557.47
2022-10-17T11:25:00.819Z,98544.97
2022-10-17T11:30:03.882Z,98547.09
2022-10-17T11:35:30.639Z,98531.16
2022-10-17T11:40:36.152Z,98530.56
2022-10-17T11:45:45.270Z,98537.28
2022-10-17T11:56:33.329Z,98526.31
2022-10-17T12:02:01.754Z,98524.13
2022-10-17T12:07:30.086Z,98523.50
2022-10-17T12:12:34.650Z,98518.78
2022-10-17T12:17:41.195Z,98511.56
2022-10-17T12:23:12.098Z,98502.06
2022-10-17T12:28:18.982Z,98500.50
2022-10-17T12:33:23.542Z,98491.88
2022-10-17T12:38:27.160Z,98501.59
2022-10-17T12:43:28.807Z,98501.91
2022-10-17T12:48:33.173Z,98494.16
2022-10-17T12:53:49.943Z,98497.81
2022-10-17T12:58:52.053Z,98487.31
2022-10-17T13:03:55.070Z,98490.63
2022-10-17T13:09:08.765Z,98492.66
2022-10-17T13:14:16.453Z,98491.19
2022-10-17T13:19:24.682Z,98492.97
2022-10-17T13:24:40.534Z,98486.47
2022-10-17T13:29:44.454Z,98477.75
2022-10-17T13:34:46.010Z,98493.34
2022-10-17T13:40:00.309Z,98495.44
2022-10-17T13:45:25.375Z,98488.16
2022-10-17T13:50:48.663Z,98489.22
2022-10-17T13:56:09.552Z,98477.25
2022-10-17T14:01:19.204Z,98482.09
2022-10-17T14:06:23.634Z,98481.31
2022-10-17T14:11:38.157Z,98476.50
2022-10-17T14:16:42.504Z,98480.19
2022-10-17T14:21:48.867Z,98480.34
2022-10-17T14:26:59.498Z,98476.75
2022-10-17T14:32:03.052Z,98473.75
2022-10-17T14:37:41.368Z,98470.22
2022-10-17T14:42:43.678Z,98473.34
2022-10-17T14:47:49.899Z,98475.75
2022-10-17T14:53:23.566Z,98470.56
2022-10-17T14:58:27.960Z,98464.44
2022-10-17T15:03:29.674Z,98472.22
2022-10-17T15:08:31.346Z,98472.91
2022-10-17T15:13:39.954Z,98488.31
2022-10-17T15:18:43.848Z,98503.38
2022-10-17T15:23:45.464Z,98504.31
2022-10-17T15:28:47.805Z,98508.34
2022-10-17T15:33:49.943Z,98503.69
2022-10-17T15:38:53.496Z,98515.56
2022-10-17T15:43:55.534Z,98520.97
2022-10-17T15:49:02.443Z,98531.91
2022-10-17T15:54:05.694Z,98538.66
2022-10-17T15:59:14.093Z,98546.03
2022-10-17T16:04:15.966Z,98541.19
2022-10-17T16:09:17.550Z,98552.47
2022-10-17T16:14:19.214Z,98550.69
2022-10-17T16:19:21.775Z,98554.13
2022-10-17T16:24:24.514Z,98549.84
2022-10-17T16:29:26.168Z,98559.75
2022-10-17T16:34:30.685Z,98563.06
2022-10-17T16:39:32.332Z,98560.59
2022-10-17T16:44:34.074Z,98561.47
2022-10-17T16:49:35.653Z,98573.25
2022-10-17T16:54:37.305Z,98576.72
2022-10-17T16:59:38.912Z,98583.53
2022-10-17T17:04:40.560Z,98587.38
2022-10-17T17:09:42.125Z,98595.66
2022-10-17T17:14:43.712Z,98596.38
2022-10-17T17:19:45.248Z,98591.41
2022-10-17T17:24:46.853Z,98597.03
2022-10-17T17:29:48.509Z,98599.03
2022-10-17T17:34:50.131Z,98592.97
2022-10-17T17:39:51.699Z,98599.59
2022-10-17T17:44:53.441Z,98598.25
2022-10-17T17:49:55.021Z,98594.38
2022-10-17T17:54:56.567Z,98602.75
2022-10-17T17:59:58.111Z,98603.06
2022-10-17T18:04:59.670Z,98612.44
2022-10-17T18:10:01.230Z,98602.06
2022-10-17T18:15:04.410Z,98610.44
2022-10-17T18:20:07.162Z,98612.19
2022-10-17T18:25:08.945Z,98608.16
2022-10-17T18:30:10.755Z,98622.47
2022-10-17T18:35:12.318Z,98614.00
2022-10-17T18:40:13.842Z,98613.59
2022-10-17T18:45:15.703Z,98628.16
2022-10-17T18:50:17.376Z,98634.75
2022-10-17T18:55:20.535Z,98636.28
2022-10-17T19:00:22.105Z,98644.66
2022-10-17T19:05:23.670Z,98647.97
2022-10-17T19:10:25.729Z,98646.06
2022-10-17T19:15:27.326Z,98654.38
2022-10-17T19:20:29.184Z,98648.50
2022-10-17T19:25:30.881Z,98657.94
2022-10-17T19:30:32.521Z,98656.13
2022-10-17T19:35:34.883Z,98651.91
2022-10-17T19:40:40.934Z,98653.75
2022-10-17T19:45:42.536Z,98654.22
2022-10-17T19:50:44.692Z,98656.03
2022-10-17T19:55:46.314Z,98657.69
2022-10-17T20:00:49.593Z,98655.06
2022-10-17T20:05:51.449Z,98661.28
2022-10-17T20:10:52.999Z,98670.41
2022-10-17T20:15:55.948Z,98675.59
2022-10-17T20:21:03.033Z,98671.69
2022-10-17T20:26:33.254Z,98672.34
2022-10-17T20:31:40.373Z,98678.88
2022-10-17T20:36:42.072Z,98682.78
2022-10-17T20:41:44.969Z,98677.25
2022-10-17T20:47:00.820Z,98686.84
2022-10-17T20:52:03.544Z,98703.13
2022-10-17T20:57:05.794Z,98700.06
2022-10-17T21:02:10.616Z,98696.94
2022-10-17T21:07:12.171Z,98712.09
2022-10-17T21:12:21.622Z,98709.63
2022-10-17T21:17:32.886Z,98708.00
2022-10-17T21:22:35.014Z,98715.00
2022-10-17T21:27:36.578Z,98717.44
2022-10-17T21:32:51.131Z,98711.28
2022-10-17T21:37:55.832Z,98707.06
2022-10-17T21:42:57.368Z,98713.56
2022-10-17T21:48:12.535Z,98705.78
2022-10-17T21:53:14.576Z,98710.47
2022-10-17T21:58:16.220Z,98713.06
2022-10-17T22:03:17.780Z,98716.31
2022-10-17T22:08:19.332Z,98707.81
2022-10-17T22:13:20.921Z,98710.44
2022-10-17T22:18:22.488Z,98706.19
2022-10-17T22:23:24.980Z,98713.84
2022-10-17T22:28:26.624Z,98718.56
2022-10-17T22:33:28.533Z,98721.81
2022-10-17T22:38:30.372Z,98718.88
2022-10-17T22:43:32.648Z,98726.97
2022-10-17T22:48:34.479Z,98720.16
2022-10-17T22:53:37.668Z,98727.44
2022-10-17T22:58:39.746Z,98722.53
2022-10-17T23:03:41.571Z,98721.94
2022-10-17T23:08:43.663Z,98719.94
2022-10-17T23:13:45.460Z,98719.00
2022-10-17T23:18:47.225Z,98708.63
2022-10-17T23:23:48.958Z,98703.72
2022-10-17T23:28:54.599Z,98699.31
2022-10-17T23:33:56.416Z,98704.75
2022-10-17T23:38:58.700Z,98710.97
2022-10-17T23:44:00.582Z,98716.34
2022-10-17T23:49:02.363Z,98697.44
2022-10-17T23:54:04.827Z,98688.06
2022-10-17T23:59:06.564Z,98700.53
